Time;durP1;ratioP1;P1;durP2;ratioP2;P2;SDS_P1;SDS_P2;PMS_P1;PMS_P2;Temp;Humidity;BMP_temperature;BMP_pressure;BME280_temperature;BME280_humidity;BME280_pressure;Samples;Min_cycle;Max_cycle;Signal;HPM_P1;HPM_P2
2024/01/30 00:01:59;;;;;;;22.70;12.20;;;;;;;;;;5010031;28;20030;-59
2024/01/30 00:04:25;;;;;;;24.83;13.02;;;;;;;;;;5009364;28;20026;-58
2024/01/30 00:06:52;;;;;;;23.58;12.68;;;;;;;;;;5008862;28;20052;-59
2024/01/30 00:09:19;;;;;;;25.48;12.88;;;;;;;;;;5007650;28;20114;-59
2024/01/30 00:11:45;;;;;;;21.23;11.18;;;;;;;;;;5011703;28;20057;-61
2024/01/30 00:14:11;;;;;;;33.17;13.38;;;;;;;;;;5008341;28;20026;-60
2024/01/30 00:16:37;;;;;;;25.48;13.80;;;;;;;;;;5009854;28;20092;-57
2024/01/30 00:19:03;;;;;;;22.35;12.18;;;;;;;;;;5009167;28;20060;-59
2024/01/30 00:21:29;;;;;;;31.35;14.05;;;;;;;;;;5008123;28;20042;-58
2024/01/30 00:23:55;;;;;;;26.83;14.35;;;;;;;;;;5007524;28;20037;-60
2024/01/30 00:26:21;;;;;;;26.60;13.55;;;;;;;;;;5010428;28;20038;-59
2024/01/30 00:28:47;;;;;;;22.63;12.57;;;;;;;;;;5009723;28;20083;-60
2024/01/30 00:31:13;;;;;;;26.63;13.40;;;;;;;;;;5007208;28;20034;-60
2024/01/30 00:33:39;;;;;;;23.52;13.77;;;;;;;;;;5008534;28;20037;-60
2024/01/30 00:36:09;;;;;;;24.50;13.02;;;;;;;;;;5013487;28;20068;-60
2024/01/30 00:38:35;;;;;;;24.15;13.77;;;;;;;;;;5008774;28;20508;-61
2024/01/30 00:41:01;;;;;;;29.77;14.02;;;;;;;;;;5008241;28;20018;-59
2024/01/30 00:43:28;;;;;;;22.95;12.85;;;;;;;;;;5012701;28;20014;-61
2024/01/30 00:45:54;;;;;;;27.30;13.93;;;;;;;;;;5006826;28;20515;-58
2024/01/30 00:48:20;;;;;;;30.30;14.85;;;;;;;;;;5012074;28;20026;-58
2024/01/30 00:50:46;;;;;;;24.63;14.02;;;;;;;;;;5009720;28;20029;-60
2024/01/30 00:53:12;;;;;;;29.92;14.90;;;;;;;;;;5008292;28;20022;-59
2024/01/30 00:55:38;;;;;;;24.98;14.80;;;;;;;;;;5022384;28;20508;-59
2024/01/30 00:58:05;;;;;;;30.58;14.15;;;;;;;;;;5009454;28;20033;-60
2024/01/30 01:00:31;;;;;;;30.05;14.07;;;;;;;;;;5006244;28;20022;-56
2024/01/30 01:02:57;;;;;;;31.05;14.75;;;;;;;;;;5006526;28;20030;-57
2024/01/30 01:05:23;;;;;;;34.80;14.50;;;;;;;;;;5008460;28;20026;-57
2024/01/30 01:07:49;;;;;;;24.85;14.52;;;;;;;;;;5007003;28;20105;-56
2024/01/30 01:10:16;;;;;;;27.63;14.77;;;;;;;;;;5007944;28;20033;-58
2024/01/30 01:12:42;;;;;;;27.90;14.57;;;;;;;;;;5009339;28;20021;-58
2024/01/30 01:15:11;;;;;;;26.73;14.57;;;;;;;;;;5007288;28;20536;-58
2024/01/30 01:17:37;;;;;;;28.15;14.50;;;;;;;;;;5006855;28;20026;-58
2024/01/30 01:20:05;;;;;;;26.17;14.38;;;;;;;;;;5010664;28;20030;-56
2024/01/30 01:22:31;;;;;;;29.48;14.82;;;;;;;;;;5011912;28;20449;-60
2024/01/30 01:24:57;;;;;;;26.67;14.82;;;;;;;;;;5012549;28;20061;-56
2024/01/30 01:27:23;;;;;;;29.08;14.80;;;;;;;;;;5013372;28;20049;-55
2024/01/30 01:29:49;;;;;;;23.80;13.45;;;;;;;;;;5013565;28;20448;-56
2024/01/30 01:32:15;;;;;;;37.92;16.15;;;;;;;;;;5013997;28;20030;-59
2024/01/30 01:34:41;;;;;;;30.75;15.07;;;;;;;;;;5014041;28;20092;-57
2024/01/30 01:37:07;;;;;;;30.75;13.65;;;;;;;;;;5015274;28;20372;-59
2024/01/30 01:39:33;;;;;;;24.60;14.15;;;;;;;;;;5015541;28;20066;-59
2024/01/30 01:41:59;;;;;;;30.02;16.92;;;;;;;;;;5016166;28;20041;-57
2024/01/30 01:44:25;;;;;;;29.88;14.07;;;;;;;;;;5013787;28;20034;-56
2024/01/30 01:46:52;;;;;;;22.48;13.10;;;;;;;;;;5014408;28;20037;-59
2024/01/30 01:49:19;;;;;;;25.23;14.10;;;;;;;;;;5019390;28;20101;-55
2024/01/30 01:51:45;;;;;;;27.40;13.25;;;;;;;;;;5011773;28;20526;-58
2024/01/30 01:54:11;;;;;;;32.72;15.50;;;;;;;;;;5007811;28;20037;-58
2024/01/30 01:56:38;;;;;;;25.25;12.90;;;;;;;;;;5016774;28;20022;-58
2024/01/30 01:59:08;;;;;;;25.15;13.55;;;;;;;;;;5018600;28;20025;-58
2024/01/30 02:01:34;;;;;;;22.42;13.43;;;;;;;;;;5019415;28;20030;-58
2024/01/30 02:04:00;;;;;;;34.85;14.60;;;;;;;;;;5015939;28;20113;-60
2024/01/30 02:06:27;;;;;;;27.65;14.10;;;;;;;;;;5011870;28;20035;-57
2024/01/30 02:08:53;;;;;;;29.00;14.07;;;;;;;;;;5015132;28;20037;-59
2024/01/30 02:11:19;;;;;;;30.33;14.43;;;;;;;;;;5016102;28;20104;-59
2024/01/30 02:13:45;;;;;;;28.67;14.57;;;;;;;;;;5022610;28;20022;-58
2024/01/30 02:16:11;;;;;;;22.77;13.48;;;;;;;;;;5016994;28;20483;-55
2024/01/30 02:18:43;;;;;;;31.60;14.10;;;;;;;;;;5013873;28;20384;-56
2024/01/30 02:21:09;;;;;;;26.10;13.55;;;;;;;;;;5016733;28;20567;-58
2024/01/30 02:23:35;;;;;;;27.65;13.93;;;;;;;;;;5017078;28;20068;-59
2024/01/30 02:26:01;;;;;;;34.53;14.10;;;;;;;;;;5019933;28;20024;-59
2024/01/30 02:28:27;;;;;;;26.35;13.52;;;;;;;;;;5022512;28;20022;-59
2024/01/30 02:30:53;;;;;;;23.38;13.77;;;;;;;;;;5023959;28;20036;-59
2024/01/30 02:33:21;;;;;;;25.48;14.05;;;;;;;;;;5024195;28;20038;-59
2024/01/30 02:35:47;;;;;;;27.48;14.60;;;;;;;;;;5028101;28;20065;-60
2024/01/30 02:38:13;;;;;;;20.70;13.55;;;;;;;;;;5024266;28;20026;-60
2024/01/30 02:40:39;;;;;;;37.80;14.43;;;;;;;;;;5023687;28;20037;-58
2024/01/30 02:43:05;;;;;;;22.33;13.25;;;;;;;;;;5025551;28;20029;-60
2024/01/30 02:45:31;;;;;;;22.85;13.05;;;;;;;;;;5022768;28;20045;-59
2024/01/30 02:47:57;;;;;;;27.50;12.85;;;;;;;;;;5026624;28;20169;-59
2024/01/30 02:50:23;;;;;;;32.65;14.65;;;;;;;;;;5022153;28;20044;-59
2024/01/30 02:52:49;;;;;;;22.38;13.45;;;;;;;;;;5018013;28;20046;-59
2024/01/30 02:55:17;;;;;;;24.10;12.38;;;;;;;;;;5015085;28;20563;-55
2024/01/30 02:57:43;;;;;;;25.63;13.75;;;;;;;;;;5016754;28;20033;-57
2024/01/30 03:00:10;;;;;;;24.02;13.40;;;;;;;;;;5011108;28;20499;-61
2024/01/30 03:02:36;;;;;;;26.85;13.88;;;;;;;;;;5014229;28;20096;-60
2024/01/30 03:05:03;;;;;;;25.13;13.10;;;;;;;;;;5011600;28;20032;-59
2024/01/30 03:07:29;;;;;;;22.23;12.75;;;;;;;;;;5009219;28;20049;-59
2024/01/30 03:09:55;;;;;;;23.55;12.45;;;;;;;;;;5009967;28;20030;-59
2024/01/30 03:12:21;;;;;;;30.42;13.13;;;;;;;;;;5007423;28;20025;-58
2024/01/30 03:14:47;;;;;;;23.23;13.35;;;;;;;;;;5007940;28;20034;-59
2024/01/30 03:17:13;;;;;;;28.48;13.85;;;;;;;;;;5011008;28;20038;-60
2024/01/30 03:19:39;;;;;;;26.50;12.75;;;;;;;;;;5012178;28;20053;-58
2024/01/30 03:22:05;;;;;;;27.65;13.57;;;;;;;;;;5011758;28;20065;-59
2024/01/30 03:24:31;;;;;;;28.50;13.05;;;;;;;;;;5010834;28;20646;-56
2024/01/30 03:26:57;;;;;;;23.90;13.85;;;;;;;;;;5011539;28;20028;-59
2024/01/30 03:29:23;;;;;;;24.73;13.45;;;;;;;;;;5010458;28;20041;-59
2024/01/30 03:31:49;;;;;;;27.08;12.88;;;;;;;;;;5010903;28;20044;-59
2024/01/30 03:34:15;;;;;;;25.50;13.18;;;;;;;;;;5016300;28;20544;-58
2024/01/30 03:36:41;;;;;;;23.60;12.63;;;;;;;;;;5013398;28;20107;-57
2024/01/30 03:39:07;;;;;;;23.80;13.20;;;;;;;;;;5013458;28;20435;-59
2024/01/30 03:41:33;;;;;;;22.33;13.23;;;;;;;;;;5011351;28;20026;-57
2024/01/30 03:43:59;;;;;;;25.17;13.55;;;;;;;;;;5011114;28;20022;-59
2024/01/30 03:46:25;;;;;;;26.25;13.43;;;;;;;;;;5009006;28;20061;-60
2024/01/30 03:48:51;;;;;;;23.60;13.48;;;;;;;;;;5000050;28;20069;-60
2024/01/30 03:51:17;;;;;;;31.92;13.35;;;;;;;;;;5002386;28;20033;-59
2024/01/30 03:53:43;;;;;;;30.40;14.30;;;;;;;;;;5001727;28;20030;-58
2024/01/30 03:56:10;;;;;;;29.77;15.80;;;;;;;;;;5004088;28;20396;-56
2024/01/30 03:58:36;;;;;;;28.55;13.35;;;;;;;;;;4995003;28;20029;-59
2024/01/30 04:01:02;;;;;;;25.67;14.20;;;;;;;;;;5000629;28;21610;-59
2024/01/30 04:03:28;;;;;;;23.55;13.23;;;;;;;;;;5002889;28;20034;-58
2024/01/30 04:05:54;;;;;;;27.05;14.02;;;;;;;;;;5001411;28;20109;-59
2024/01/30 04:08:21;;;;;;;30.75;15.38;;;;;;;;;;4999999;28;20030;-59
2024/01/30 04:10:47;;;;;;;30.50;13.65;;;;;;;;;;5004355;28;20465;-59
2024/01/30 04:13:13;;;;;;;23.75;14.10;;;;;;;;;;5007946;28;20400;-56
2024/01/30 04:15:39;;;;;;;23.15;13.90;;;;;;;;;;5009217;28;20041;-58
2024/01/30 04:18:05;;;;;;;33.05;15.43;;;;;;;;;;5008017;28;20492;-56
2024/01/30 04:20:31;;;;;;;30.60;14.50;;;;;;;;;;5008518;28;20030;-59
2024/01/30 04:22:57;;;;;;;25.67;13.18;;;;;;;;;;5011864;28;20034;-60
2024/01/30 04:25:23;;;;;;;21.40;12.45;;;;;;;;;;5006788;28;20073;-57
2024/01/30 04:27:49;;;;;;;33.47;13.55;;;;;;;;;;5009658;28;20033;-59
2024/01/30 04:30:15;;;;;;;28.23;12.73;;;;;;;;;;5010856;28;20091;-59
2024/01/30 04:32:41;;;;;;;24.58;12.68;;;;;;;;;;5014427;28;20022;-59
2024/01/30 04:35:07;;;;;;;22.98;12.45;;;;;;;;;;5016282;28;20387;-60
2024/01/30 04:37:33;;;;;;;27.60;13.25;;;;;;;;;;5007191;28;20524;-59
2024/01/30 04:39:59;;;;;;;26.40;13.07;;;;;;;;;;5006561;28;20136;-56
2024/01/30 04:42:25;;;;;;;28.40;12.73;;;;;;;;;;5009694;28;20038;-59
2024/01/30 04:44:51;;;;;;;23.85;11.68;;;;;;;;;;5013098;28;20536;-59
2024/01/30 04:47:17;;;;;;;20.45;13.35;;;;;;;;;;5008218;28;20111;-58
2024/01/30 04:49:43;;;;;;;23.58;12.13;;;;;;;;;;5015685;28;20029;-57
2024/01/30 04:52:10;;;;;;;24.55;13.07;;;;;;;;;;5008480;28;20026;-57
2024/01/30 04:54:36;;;;;;;22.45;12.50;;;;;;;;;;5005599;28;20033;-59
2024/01/30 04:57:02;;;;;;;21.45;11.38;;;;;;;;;;5008495;28;20034;-59
2024/01/30 04:59:28;;;;;;;30.20;13.25;;;;;;;;;;5006430;28;20118;-60
2024/01/30 05:01:55;;;;;;;32.17;12.13;;;;;;;;;;5009186;28;20210;-59
2024/01/30 05:04:21;;;;;;;23.25;11.68;;;;;;;;;;5007780;28;20095;-59
2024/01/30 05:06:47;;;;;;;29.25;12.55;;;;;;;;;;5020994;28;20072;-55
2024/01/30 05:09:13;;;;;;;28.80;12.38;;;;;;;;;;5007440;28;20030;-58
2024/01/30 05:11:40;;;;;;;25.58;13.25;;;;;;;;;;5008245;28;20026;-59
2024/01/30 05:14:06;;;;;;;28.77;12.35;;;;;;;;;;5009544;28;20025;-60
2024/01/30 05:16:32;;;;;;;19.40;12.10;;;;;;;;;;5015603;28;20079;-58
2024/01/30 05:18:58;;;;;;;23.90;12.32;;;;;;;;;;5017869;28;20433;-60
2024/01/30 05:21:25;;;;;;;20.95;12.48;;;;;;;;;;5012603;28;20030;-58
2024/01/30 05:23:50;;;;;;;21.80;11.13;;;;;;;;;;5020088;28;20439;-61
2024/01/30 05:26:16;;;;;;;22.83;12.10;;;;;;;;;;5010732;28;20022;-56
2024/01/30 05:28:44;;;;;;;25.58;12.48;;;;;;;;;;5016385;28;20025;-59
2024/01/30 05:31:10;;;;;;;23.05;12.80;;;;;;;;;;5016966;28;20030;-56
2024/01/30 05:33:36;;;;;;;22.30;12.20;;;;;;;;;;5014849;28;20029;-59
2024/01/30 05:36:02;;;;;;;23.58;12.50;;;;;;;;;;5015075;28;20113;-59
2024/01/30 05:38:28;;;;;;;27.27;13.32;;;;;;;;;;5016535;28;20118;-59
2024/01/30 05:40:55;;;;;;;24.98;13.68;;;;;;;;;;5014230;28;20044;-59
2024/01/30 05:43:21;;;;;;;27.75;14.38;;;;;;;;;;5015923;28;20021;-58
2024/01/30 05:45:47;;;;;;;27.38;14.30;;;;;;;;;;5015887;28;20032;-58
2024/01/30 05:48:13;;;;;;;26.55;13.90;;;;;;;;;;5016798;28;20034;-59
2024/01/30 05:50:39;;;;;;;30.02;14.77;;;;;;;;;;5016357;28;20035;-56
2024/01/30 05:53:05;;;;;;;36.17;14.60;;;;;;;;;;5015662;28;20109;-59
2024/01/30 05:55:31;;;;;;;21.40;13.68;;;;;;;;;;5010191;28;20030;-57
2024/01/30 05:57:57;;;;;;;24.27;13.27;;;;;;;;;;5007070;28;20026;-58
2024/01/30 06:00:23;;;;;;;25.65;14.52;;;;;;;;;;5017990;28;20104;-59
2024/01/30 06:02:49;;;;;;;31.50;13.80;;;;;;;;;;5009883;28;20373;-60
2024/01/30 06:05:15;;;;;;;29.42;14.02;;;;;;;;;;5012715;28;20033;-60
2024/01/30 06:07:40;;;;;;;33.03;16.13;;;;;;;;;;5010232;28;20109;-59
2024/01/30 06:10:08;;;;;;;29.15;14.32;;;;;;;;;;5015578;28;20061;-61
2024/01/30 06:12:34;;;;;;;26.33;14.00;;;;;;;;;;5013446;28;20091;-57
2024/01/30 06:15:00;;;;;;;32.08;15.50;;;;;;;;;;5009499;28;20030;-59
2024/01/30 06:17:26;;;;;;;27.67;14.63;;;;;;;;;;5006409;28;20097;-58
2024/01/30 06:19:52;;;;;;;30.67;15.45;;;;;;;;;;5013989;28;21135;-59
2024/01/30 06:22:18;;;;;;;33.78;15.73;;;;;;;;;;5004680;28;20033;-58
2024/01/30 06:24:50;;;;;;;30.50;15.40;;;;;;;;;;5007682;28;20468;-58
2024/01/30 06:27:17;;;;;;;25.90;14.27;;;;;;;;;;5007634;28;20064;-59
2024/01/30 06:29:44;;;;;;;26.63;15.18;;;;;;;;;;5012951;28;20108;-60
2024/01/30 06:32:10;;;;;;;33.53;15.50;;;;;;;;;;5014042;28;20384;-61
2024/01/30 06:34:36;;;;;;;29.63;15.27;;;;;;;;;;5010397;28;20030;-60
2024/01/30 06:37:02;;;;;;;28.48;15.38;;;;;;;;;;5010576;28;20021;-61
2024/01/30 06:39:28;;;;;;;31.98;14.70;;;;;;;;;;5012410;28;20026;-60
2024/01/30 06:41:54;;;;;;;36.13;15.77;;;;;;;;;;5019062;28;20614;-60
2024/01/30 06:44:20;;;;;;;33.13;15.85;;;;;;;;;;5010822;28;20032;-58
2024/01/30 06:46:46;;;;;;;25.58;15.88;;;;;;;;;;5025558;28;20040;-59
2024/01/30 06:49:12;;;;;;;32.08;16.58;;;;;;;;;;5011937;28;20034;-59
2024/01/30 06:51:38;;;;;;;27.67;15.18;;;;;;;;;;5017211;28;20033;-57
2024/01/30 06:54:04;;;;;;;32.85;15.65;;;;;;;;;;5013398;28;20030;-59
2024/01/30 06:56:30;;;;;;;26.10;15.63;;;;;;;;;;5011941;28;20049;-58
2024/01/30 06:58:58;;;;;;;30.08;16.52;;;;;;;;;;5011752;28;20026;-59
2024/01/30 07:01:28;;;;;;;25.83;15.48;;;;;;;;;;5010361;28;20116;-59
2024/01/30 07:03:54;;;;;;;36.17;17.45;;;;;;;;;;5013639;28;20365;-58
2024/01/30 07:06:20;;;;;;;30.52;14.60;;;;;;;;;;5012335;28;20032;-59
2024/01/30 07:08:46;;;;;;;25.88;14.48;;;;;;;;;;5014067;28;20028;-59
2024/01/30 07:11:18;;;;;;;25.30;14.25;;;;;;;;;;5015624;28;20037;-58
2024/01/30 07:13:44;;;;;;;29.58;15.50;;;;;;;;;;5012206;28;20026;-56
2024/01/30 07:16:10;;;;;;;28.30;14.38;;;;;;;;;;5015579;28;20484;-58
2024/01/30 07:18:36;;;;;;;25.83;14.48;;;;;;;;;;5011400;28;20049;-58
2024/01/30 07:21:02;;;;;;;32.10;14.65;;;;;;;;;;5012328;28;20030;-60
2024/01/30 07:23:29;;;;;;;35.22;15.73;;;;;;;;;;5012016;28;20081;-59
2024/01/30 07:25:55;;;;;;;28.90;14.50;;;;;;;;;;5007533;28;20400;-60
2024/01/30 07:28:21;;;;;;;27.77;14.07;;;;;;;;;;5013116;28;20097;-59
2024/01/30 07:30:48;;;;;;;29.45;15.27;;;;;;;;;;5009440;28;20045;-59
2024/01/30 07:33:14;;;;;;;34.03;14.02;;;;;;;;;;5008374;28;20048;-59
2024/01/30 07:35:40;;;;;;;27.30;15.32;;;;;;;;;;5010113;28;20028;-58
2024/01/30 07:38:06;;;;;;;30.05;15.75;;;;;;;;;;5010127;28;20026;-58
2024/01/30 07:40:33;;;;;;;26.40;14.00;;;;;;;;;;5014717;28;20037;-59
2024/01/30 07:42:59;;;;;;;35.53;14.70;;;;;;;;;;5006567;28;20029;-58
2024/01/30 07:45:27;;;;;;;24.42;14.63;;;;;;;;;;5011754;28;20109;-58
2024/01/30 07:47:53;;;;;;;23.35;13.98;;;;;;;;;;5014768;28;20018;-58
2024/01/30 07:50:19;;;;;;;27.70;15.00;;;;;;;;;;5013739;28;20121;-60
2024/01/30 07:52:45;;;;;;;25.60;13.68;;;;;;;;;;5012106;28;20065;-59
2024/01/30 07:55:12;;;;;;;27.50;13.68;;;;;;;;;;5013763;28;20484;-60
2024/01/30 07:57:39;;;;;;;25.02;15.30;;;;;;;;;;5006674;28;20026;-58
2024/01/30 08:00:07;;;;;;;28.10;13.82;;;;;;;;;;5009830;28;20030;-59
2024/01/30 08:02:33;;;;;;;25.95;14.80;;;;;;;;;;5008795;28;20094;-62
2024/01/30 08:04:59;;;;;;;26.73;14.20;;;;;;;;;;5013236;28;20034;-59
2024/01/30 08:07:25;;;;;;;24.75;13.02;;;;;;;;;;5014155;28;20032;-59
2024/01/30 08:09:51;;;;;;;31.13;14.43;;;;;;;;;;5010476;28;20062;-61
2024/01/30 08:12:17;;;;;;;26.80;13.93;;;;;;;;;;5010206;28;20105;-60
2024/01/30 08:14:43;;;;;;;28.00;13.57;;;;;;;;;;5010927;28;20564;-61
2024/01/30 08:17:09;;;;;;;24.92;14.32;;;;;;;;;;5010726;28;20104;-60
2024/01/30 08:19:35;;;;;;;31.75;14.25;;;;;;;;;;5010325;28;20033;-60
2024/01/30 08:22:01;;;;;;;28.95;13.90;;;;;;;;;;5015679;28;20046;-61
2024/01/30 08:24:26;;;;;;;26.00;13.98;;;;;;;;;;5011416;28;20119;-58
2024/01/30 08:26:52;;;;;;;28.95;14.30;;;;;;;;;;5012477;28;20025;-60
2024/01/30 08:29:18;;;;;;;28.83;13.80;;;;;;;;;;5013774;28;20104;-58
2024/01/30 08:31:46;;;;;;;22.63;14.32;;;;;;;;;;5014560;28;20034;-58
2024/01/30 08:34:12;;;;;;;32.15;14.35;;;;;;;;;;5014714;28;20028;-58
2024/01/30 08:36:38;;;;;;;26.95;14.05;;;;;;;;;;5015044;28;20041;-55
2024/01/30 08:39:05;;;;;;;23.02;13.00;;;;;;;;;;5010799;28;20025;-59
2024/01/30 08:41:31;;;;;;;25.00;13.02;;;;;;;;;;5009585;28;20064;-58
2024/01/30 08:43:57;;;;;;;22.15;12.80;;;;;;;;;;5010139;28;20056;-60
2024/01/30 08:46:23;;;;;;;23.00;13.25;;;;;;;;;;5010027;28;20052;-57
2024/01/30 08:48:49;;;;;;;22.63;13.18;;;;;;;;;;5007891;28;20026;-60
2024/01/30 08:51:15;;;;;;;22.58;12.98;;;;;;;;;;5016439;28;20047;-58
2024/01/30 08:53:41;;;;;;;24.50;12.63;;;;;;;;;;5009931;28;20028;-58
2024/01/30 08:56:07;;;;;;;25.20;13.95;;;;;;;;;;5011551;28;20034;-58
2024/01/30 08:58:33;;;;;;;23.08;12.82;;;;;;;;;;5010498;28;20475;-59
2024/01/30 09:00:59;;;;;;;28.10;12.00;;;;;;;;;;5007758;28;20034;-59
2024/01/30 09:03:25;;;;;;;25.63;13.05;;;;;;;;;;5006479;28;20403;-61
2024/01/30 09:05:51;;;;;;;28.33;14.05;;;;;;;;;;5011380;28;20543;-57
2024/01/30 09:08:17;;;;;;;24.05;13.57;;;;;;;;;;5013618;28;20033;-59
2024/01/30 09:10:44;;;;;;;24.38;12.25;;;;;;;;;;5009381;28;20144;-64
2024/01/30 09:13:10;;;;;;;25.50;12.63;;;;;;;;;;5013172;28;20022;-60
2024/01/30 09:15:36;;;;;;;22.95;12.05;;;;;;;;;;5005621;28;20033;-61
2024/01/30 09:18:02;;;;;;;22.73;12.80;;;;;;;;;;5008845;28;20029;-60
2024/01/30 09:20:28;;;;;;;24.95;13.23;;;;;;;;;;5009261;28;20118;-59
2024/01/30 09:22:54;;;;;;;25.13;13.38;;;;;;;;;;5009718;28;20028;-60
2024/01/30 09:25:20;;;;;;;26.42;13.00;;;;;;;;;;5009783;28;20068;-60
2024/01/30 09:27:47;;;;;;;28.75;13.15;;;;;;;;;;5009123;28;20025;-57
2024/01/30 09:30:13;;;;;;;23.42;13.27;;;;;;;;;;5006792;28;20022;-59
2024/01/30 09:32:40;;;;;;;21.85;12.55;;;;;;;;;;5009971;28;20583;-57
2024/01/30 09:35:06;;;;;;;29.02;12.77;;;;;;;;;;5010242;28;20030;-61
2024/01/30 09:37:32;;;;;;;25.92;13.15;;;;;;;;;;5013334;28;20021;-61
2024/01/30 09:39:58;;;;;;;30.45;13.50;;;;;;;;;;5010426;28;20044;-61
2024/01/30 09:42:24;;;;;;;24.63;13.00;;;;;;;;;;5011416;28;20439;-64
2024/01/30 09:44:52;;;;;;;28.83;13.00;;;;;;;;;;5011111;28;20037;-61
2024/01/30 09:47:18;;;;;;;20.80;12.25;;;;;;;;;;5009931;28;20030;-62
2024/01/30 09:49:44;;;;;;;20.77;12.60;;;;;;;;;;5016881;28;20721;-59
2024/01/30 09:52:11;;;;;;;23.02;11.82;;;;;;;;;;5012855;28;20033;-60
2024/01/30 09:54:38;;;;;;;27.10;12.48;;;;;;;;;;5011699;28;20068;-61
2024/01/30 09:57:04;;;;;;;19.20;12.32;;;;;;;;;;5016706;28;20036;-60
2024/01/30 09:59:30;;;;;;;25.77;11.80;;;;;;;;;;5014372;28;20030;-59
2024/01/30 10:01:57;;;;;;;25.33;12.90;;;;;;;;;;5012409;28;20531;-60
2024/01/30 10:04:23;;;;;;;25.17;12.00;;;;;;;;;;5011563;28;20034;-60
2024/01/30 10:06:49;;;;;;;18.83;11.40;;;;;;;;;;5012706;28;20411;-59
2024/01/30 10:09:15;;;;;;;25.42;12.93;;;;;;;;;;5016861;28;20136;-60
2024/01/30 10:11:41;;;;;;;22.98;11.23;;;;;;;;;;5016266;28;20026;-60
2024/01/30 10:14:07;;;;;;;21.63;11.52;;;;;;;;;;5012442;28;20472;-59
2024/01/30 10:16:34;;;;;;;23.40;11.55;;;;;;;;;;5009934;28;20026;-57
2024/01/30 10:19:00;;;;;;;18.10;11.45;;;;;;;;;;5013369;28;20026;-58
2024/01/30 10:21:27;;;;;;;28.77;12.02;;;;;;;;;;5011423;28;20022;-60
2024/01/30 10:23:53;;;;;;;23.67;12.13;;;;;;;;;;5010857;28;20018;-60
2024/01/30 10:26:19;;;;;;;19.02;12.18;;;;;;;;;;5011525;28;20053;-60
2024/01/30 10:28:45;;;;;;;21.85;11.93;;;;;;;;;;5011984;28;20036;-58
2024/01/30 10:31:11;;;;;;;30.80;12.25;;;;;;;;;;5013970;28;20033;-61
2024/01/30 10:33:37;;;;;;;21.67;11.27;;;;;;;;;;5012342;28;20444;-60
2024/01/30 10:36:06;;;;;;;24.45;12.27;;;;;;;;;;5010906;28;20030;-59
2024/01/30 10:38:33;;;;;;;22.42;12.07;;;;;;;;;;5005088;28;20038;-60
2024/01/30 10:41:00;;;;;;;27.92;11.57;;;;;;;;;;5011539;28;20553;-61
2024/01/30 10:43:41;;;;;;;24.88;12.77;;;;;;;;;;5011803;28;20483;-61
2024/01/30 10:46:13;;;;;;;21.27;12.70;;;;;;;;;;5010809;28;20105;-60
2024/01/30 10:48:44;;;;;;;24.65;11.75;;;;;;;;;;5010254;28;20076;-60
2024/01/30 10:51:10;;;;;;;24.70;12.23;;;;;;;;;;5010030;28;20029;-62
2024/01/30 10:53:37;;;;;;;22.20;11.45;;;;;;;;;;5011962;28;20050;-62
2024/01/30 10:56:04;;;;;;;24.85;11.63;;;;;;;;;;5011440;28;20456;-60
2024/01/30 10:58:30;;;;;;;25.92;11.00;;;;;;;;;;5011531;28;20029;-60
2024/01/30 11:00:56;;;;;;;20.25;11.13;;;;;;;;;;5010547;28;20041;-61
2024/01/30 11:03:22;;;;;;;23.85;11.48;;;;;;;;;;5009202;28;20075;-61
2024/01/30 11:05:51;;;;;;;21.80;11.10;;;;;;;;;;5011435;28;20022;-61
2024/01/30 11:08:25;;;;;;;20.50;11.02;;;;;;;;;;5009916;28;20030;-60
2024/01/30 11:10:55;;;;;;;24.83;10.73;;;;;;;;;;5008015;28;20114;-61
2024/01/30 11:13:20;;;;;;;16.33;9.85;;;;;;;;;;5011507;28;20160;-60
2024/01/30 11:15:48;;;;;;;23.00;10.55;;;;;;;;;;5010779;28;20567;-57
2024/01/30 11:18:23;;;;;;;18.95;9.57;;;;;;;;;;5011971;28;20056;-58
2024/01/30 11:20:49;;;;;;;18.83;10.13;;;;;;;;;;5008302;28;20045;-60
2024/01/30 11:23:15;;;;;;;17.67;10.00;;;;;;;;;;5010812;28;20485;-61
2024/01/30 11:25:41;;;;;;;21.52;9.43;;;;;;;;;;5012164;28;20027;-60
2024/01/30 11:28:13;;;;;;;23.67;9.80;;;;;;;;;;5007123;28;20088;-62
2024/01/30 11:30:39;;;;;;;24.70;10.27;;;;;;;;;;5011958;28;20029;-60
2024/01/30 11:33:05;;;;;;;16.75;9.85;;;;;;;;;;5011378;28;20037;-60
2024/01/30 11:35:35;;;;;;;17.85;10.85;;;;;;;;;;5011835;28;20022;-60
2024/01/30 11:38:01;;;;;;;20.45;9.70;;;;;;;;;;5011404;28;20463;-60
2024/01/30 11:40:29;;;;;;;21.63;10.05;;;;;;;;;;5011119;28;20022;-61
2024/01/30 11:42:55;;;;;;;19.40;9.70;;;;;;;;;;5011427;28;20551;-60
2024/01/30 11:45:21;;;;;;;19.92;10.13;;;;;;;;;;5011623;28;20480;-60
2024/01/30 11:47:47;;;;;;;20.45;9.82;;;;;;;;;;5010678;28;20036;-61
2024/01/30 11:50:13;;;;;;;20.00;10.13;;;;;;;;;;5010565;28;20032;-62
2024/01/30 11:52:40;;;;;;;19.42;9.27;;;;;;;;;;5010894;28;20056;-61
2024/01/30 11:55:08;;;;;;;18.35;9.48;;;;;;;;;;5010763;28;20031;-61
2024/01/30 11:57:35;;;;;;;16.23;9.10;;;;;;;;;;5010851;28;20170;-60
2024/01/30 12:00:04;;;;;;;18.50;9.50;;;;;;;;;;5010586;28;20048;-61
2024/01/30 12:02:30;;;;;;;16.33;8.32;;;;;;;;;;5010059;28;20026;-60
2024/01/30 12:04:56;;;;;;;18.77;9.38;;;;;;;;;;5007975;28;20048;-62
2024/01/30 12:07:22;;;;;;;19.63;8.65;;;;;;;;;;5009050;28;20065;-61
2024/01/30 12:09:54;;;;;;;18.08;8.13;;;;;;;;;;5008799;28;20033;-60
2024/01/30 12:12:22;;;;;;;22.73;10.40;;;;;;;;;;5008300;28;20156;-61
2024/01/30 12:14:48;;;;;;;19.60;9.48;;;;;;;;;;5010164;28;20026;-59
2024/01/30 12:17:23;;;;;;;19.40;9.43;;;;;;;;;;5008850;28;20026;-61
2024/01/30 12:19:49;;;;;;;16.10;9.48;;;;;;;;;;5007965;28;20018;-61
2024/01/30 12:22:15;;;;;;;20.98;9.52;;;;;;;;;;5012345;28;20026;-60
2024/01/30 12:24:41;;;;;;;20.35;8.70;;;;;;;;;;5010304;28;20404;-60
2024/01/30 12:27:07;;;;;;;18.20;9.82;;;;;;;;;;5010230;28;20037;-58
2024/01/30 12:29:33;;;;;;;22.25;10.05;;;;;;;;;;5010431;28;20030;-61
2024/01/30 12:32:00;;;;;;;18.45;10.30;;;;;;;;;;5009999;28;20029;-59
2024/01/30 12:34:26;;;;;;;19.83;9.98;;;;;;;;;;5008853;28;20077;-61
2024/01/30 12:36:52;;;;;;;15.80;9.60;;;;;;;;;;5008330;28;20496;-60
2024/01/30 12:39:18;;;;;;;17.63;8.68;;;;;;;;;;5009649;28;20022;-59
2024/01/30 12:41:44;;;;;;;21.63;10.05;;;;;;;;;;5010538;28;20018;-59
2024/01/30 12:44:10;;;;;;;22.42;9.98;;;;;;;;;;5009746;28;20030;-60
2024/01/30 12:46:36;;;;;;;20.45;9.73;;;;;;;;;;5008138;28;20033;-62
2024/01/30 12:49:02;;;;;;;14.43;8.85;;;;;;;;;;5009966;28;20053;-60
2024/01/30 12:51:28;;;;;;;17.80;9.00;;;;;;;;;;5008517;28;20022;-60
2024/01/30 12:53:54;;;;;;;29.92;9.93;;;;;;;;;;5005467;28;20503;-61
2024/01/30 12:56:20;;;;;;;20.05;9.82;;;;;;;;;;5008358;28;20063;-60
2024/01/30 12:58:46;;;;;;;18.83;9.50;;;;;;;;;;5007838;28;20060;-59
2024/01/30 13:01:12;;;;;;;18.55;9.25;;;;;;;;;;5008211;28;20452;-61
2024/01/30 13:03:38;;;;;;;19.05;8.35;;;;;;;;;;5008988;28;20026;-57
2024/01/30 13:06:04;;;;;;;26.98;9.73;;;;;;;;;;5006986;28;20037;-60
2024/01/30 13:08:30;;;;;;;23.52;10.48;;;;;;;;;;5005869;28;20105;-58
2024/01/30 13:10:56;;;;;;;18.40;8.75;;;;;;;;;;5007202;28;20180;-59
2024/01/30 13:13:22;;;;;;;19.90;8.73;;;;;;;;;;5008172;28;20416;-60
2024/01/30 13:15:49;;;;;;;26.30;8.68;;;;;;;;;;5009103;28;20456;-60
2024/01/30 13:18:15;;;;;;;16.45;8.23;;;;;;;;;;5011526;28;20109;-59
2024/01/30 13:20:40;;;;;;;20.40;9.23;;;;;;;;;;5012343;28;20435;-58
2024/01/30 13:23:06;;;;;;;16.00;8.35;;;;;;;;;;5008276;28;20080;-59
2024/01/30 13:25:32;;;;;;;21.05;10.10;;;;;;;;;;5013721;28;20022;-59
2024/01/30 13:27:58;;;;;;;15.63;7.72;;;;;;;;;;5012397;28;20480;-59
2024/01/30 13:30:24;;;;;;;20.35;9.07;;;;;;;;;;5012795;28;20061;-61
2024/01/30 13:32:50;;;;;;;18.50;9.45;;;;;;;;;;5011476;28;20030;-59
2024/01/30 13:35:16;;;;;;;18.27;9.35;;;;;;;;;;5012925;28;20029;-59
2024/01/30 13:37:42;;;;;;;19.63;9.30;;;;;;;;;;5011400;28;20512;-59
2024/01/30 13:40:09;;;;;;;22.13;9.32;;;;;;;;;;5012338;28;20087;-60
2024/01/30 13:42:34;;;;;;;19.50;9.15;;;;;;;;;;5012211;28;20389;-59
2024/01/30 13:45:00;;;;;;;23.05;9.77;;;;;;;;;;5009784;28;20026;-60
2024/01/30 13:47:26;;;;;;;24.02;9.52;;;;;;;;;;5011711;28;20105;-60
2024/01/30 13:49:52;;;;;;;20.48;9.15;;;;;;;;;;5015237;28;20048;-60
2024/01/30 13:52:18;;;;;;;20.40;9.45;;;;;;;;;;5011249;28;20054;-59
2024/01/30 13:54:44;;;;;;;23.33;10.18;;;;;;;;;;5013016;28;20029;-59
2024/01/30 13:57:11;;;;;;;24.98;10.18;;;;;;;;;;5010407;28;20049;-59
2024/01/30 13:59:38;;;;;;;21.55;10.02;;;;;;;;;;5014633;28;20033;-59
2024/01/30 14:02:04;;;;;;;20.50;9.50;;;;;;;;;;5010458;28;20614;-59
2024/01/30 14:04:30;;;;;;;17.48;8.30;;;;;;;;;;5010694;28;20038;-59
2024/01/30 14:06:56;;;;;;;17.92;8.15;;;;;;;;;;5009624;28;20029;-58
2024/01/30 14:09:22;;;;;;;16.48;7.65;;;;;;;;;;5012323;28;20057;-61
2024/01/30 14:11:48;;;;;;;11.98;7.18;;;;;;;;;;5011524;28;20022;-59
2024/01/30 14:14:14;;;;;;;21.88;8.23;;;;;;;;;;5011255;28;20022;-59